Time;durP1;ratioP1;P1;durP2;ratioP2;P2;SDS_P1;SDS_P2;PMS_P1;PMS_P2;Temp;Humidity;BMP_temperature;BMP_pressure;BME280_temperature;BME280_humidity;BME280_pressure;Samples;Min_cycle;Max_cycle;Signal;HPM_P1;HPM_P2
2023/08/13 00:00:56;;;;;;;154.17;147.83;;;;;;;;;;5023176;28;20460;-44
2023/08/13 00:03:24;;;;;;;150.13;144.37;;;;;;;;;;5023087;28;20535;-42
2023/08/13 00:05:52;;;;;;;173.90;166.33;;;;;;;;;;5023676;28;20462;-46
2023/08/13 00:08:19;;;;;;;166.50;158.90;;;;;;;;;;5024186;28;20483;-43
2023/08/13 00:10:47;;;;;;;171.73;164.50;;;;;;;;;;5023858;28;20433;-43
2023/08/13 00:13:14;;;;;;;171.90;164.80;;;;;;;;;;5023712;28;20464;-44
2023/08/13 00:15:42;;;;;;;172.80;165.60;;;;;;;;;;5024271;28;20546;-42
2023/08/13 00:18:11;;;;;;;173.57;166.93;;;;;;;;;;5024005;28;20453;-42
2023/08/13 00:20:38;;;;;;;226.30;216.07;;;;;;;;;;5024349;28;20472;-41
2023/08/13 00:23:06;;;;;;;202.70;193.83;;;;;;;;;;5023124;28;20467;-42
2023/08/13 00:25:35;;;;;;;201.20;193.73;;;;;;;;;;5023922;28;20456;-41
2023/08/13 00:28:02;;;;;;;202.50;194.03;;;;;;;;;;5023511;28;20457;-44
2023/08/13 00:30:30;;;;;;;197.97;189.83;;;;;;;;;;5023368;28;21005;-43
2023/08/13 00:32:57;;;;;;;201.97;194.47;;;;;;;;;;5023705;28;20548;-41
2023/08/13 00:35:26;;;;;;;206.90;199.00;;;;;;;;;;5023800;28;20468;-43
2023/08/13 00:37:54;;;;;;;207.83;199.40;;;;;;;;;;5024348;28;20461;-41
2023/08/13 00:40:21;;;;;;;208.63;200.83;;;;;;;;;;5024265;28;20495;-47
2023/08/13 00:42:49;;;;;;;209.27;200.50;;;;;;;;;;5022408;28;20465;-44
2023/08/13 00:45:16;;;;;;;206.47;198.20;;;;;;;;;;5024143;28;20505;-42
2023/08/13 00:47:44;;;;;;;207.57;198.77;;;;;;;;;;5023211;28;20495;-40
2023/08/13 00:50:12;;;;;;;218.13;209.27;;;;;;;;;;5024578;28;20495;-44
2023/08/13 00:52:41;;;;;;;219.30;210.40;;;;;;;;;;5023906;28;20519;-42
2023/08/13 00:55:09;;;;;;;221.47;213.13;;;;;;;;;;5023898;28;20869;-41
2023/08/13 00:57:36;;;;;;;215.17;207.23;;;;;;;;;;5022857;28;20468;-44
2023/08/13 01:00:06;;;;;;;222.10;213.80;;;;;;;;;;5023990;28;20437;-44
2023/08/13 01:02:34;;;;;;;230.57;221.33;;;;;;;;;;5022514;28;20468;-44
2023/08/13 01:05:03;;;;;;;233.67;224.67;;;;;;;;;;5021706;28;20457;-42
2023/08/13 01:07:33;;;;;;;233.17;223.30;;;;;;;;;;5020870;28;20461;-41
2023/08/13 01:10:09;;;;;;;233.87;224.53;;;;;;;;;;5022124;28;20433;-44
2023/08/13 01:12:39;;;;;;;226.40;217.87;;;;;;;;;;5023474;28;20488;-43
2023/08/13 01:15:09;;;;;;;225.10;216.07;;;;;;;;;;5023772;28;20594;-43
2023/08/13 01:17:38;;;;;;;219.23;211.30;;;;;;;;;;5024000;28;20886;-42
2023/08/13 01:20:06;;;;;;;226.40;217.40;;;;;;;;;;5023253;28;20463;-40
2023/08/13 01:22:38;;;;;;;225.27;216.40;;;;;;;;;;5022398;28;20504;-40
2023/08/13 01:25:06;;;;;;;230.67;220.87;;;;;;;;;;5023880;28;20433;-41
2023/08/13 01:27:37;;;;;;;225.03;216.33;;;;;;;;;;5023293;28;20522;-43
2023/08/13 01:30:10;;;;;;;224.10;215.13;;;;;;;;;;5022982;28;21001;-42
2023/08/13 01:32:53;;;;;;;234.83;225.43;;;;;;;;;;5022603;28;20465;-44
2023/08/13 01:35:22;;;;;;;222.23;214.03;;;;;;;;;;5022859;28;20429;-43
2023/08/13 01:37:52;;;;;;;228.97;220.13;;;;;;;;;;5023950;28;20512;-42
2023/08/13 01:40:19;;;;;;;220.63;212.63;;;;;;;;;;5023702;28;20449;-41
2023/08/13 01:42:47;;;;;;;229.57;220.30;;;;;;;;;;5023040;28;20544;-44
2023/08/13 01:45:14;;;;;;;226.47;217.63;;;;;;;;;;5023238;28;20448;-44
2023/08/13 01:47:42;;;;;;;209.03;201.03;;;;;;;;;;5021924;28;20978;-42
2023/08/13 01:50:10;;;;;;;215.90;207.67;;;;;;;;;;5023914;28;20429;-41
2023/08/13 01:52:37;;;;;;;213.17;205.10;;;;;;;;;;5022274;28;20734;-41
2023/08/13 01:55:07;;;;;;;214.53;206.23;;;;;;;;;;5023059;28;20472;-44
2023/08/13 01:57:35;;;;;;;217.00;208.60;;;;;;;;;;5023409;28;20489;-41
2023/08/13 02:00:02;;;;;;;222.97;214.37;;;;;;;;;;5023081;28;20437;-42
2023/08/13 02:02:30;;;;;;;237.13;227.73;;;;;;;;;;5023757;28;20519;-42
2023/08/13 02:04:57;;;;;;;231.90;222.27;;;;;;;;;;5022889;28;20524;-42
2023/08/13 02:07:25;;;;;;;228.70;219.83;;;;;;;;;;5022336;28;20453;-42
2023/08/13 02:09:52;;;;;;;227.00;218.63;;;;;;;;;;5022272;28;20854;-42
2023/08/13 02:12:21;;;;;;;228.30;219.60;;;;;;;;;;5022404;28;21025;-42
2023/08/13 02:14:49;;;;;;;232.77;223.00;;;;;;;;;;5023059;28;20433;-44
2023/08/13 02:17:16;;;;;;;228.80;220.10;;;;;;;;;;5023082;28;20479;-41
2023/08/13 02:19:44;;;;;;;228.13;219.03;;;;;;;;;;5023258;28;20479;-42
2023/08/13 02:22:11;;;;;;;233.07;223.33;;;;;;;;;;5021918;28;20441;-42
2023/08/13 02:24:39;;;;;;;235.40;225.67;;;;;;;;;;5022794;28;20436;-42
2023/08/13 02:27:07;;;;;;;228.70;219.50;;;;;;;;;;5022780;28;20483;-44
2023/08/13 02:29:36;;;;;;;230.07;220.30;;;;;;;;;;5022780;28;20480;-44
2023/08/13 02:32:04;;;;;;;228.20;218.93;;;;;;;;;;5021675;28;20437;-45
2023/08/13 02:34:32;;;;;;;235.13;224.07;;;;;;;;;;5020939;28;20429;-45
2023/08/13 02:37:00;;;;;;;232.80;223.60;;;;;;;;;;5021404;28;20487;-45
2023/08/13 02:39:27;;;;;;;228.53;219.07;;;;;;;;;;5021339;28;20425;-44
2023/08/13 02:41:55;;;;;;;219.53;210.97;;;;;;;;;;5021870;28;20560;-41
2023/08/13 02:44:25;;;;;;;226.33;217.33;;;;;;;;;;5022480;28;20480;-43
2023/08/13 02:46:53;;;;;;;231.17;221.07;;;;;;;;;;5021097;28;20483;-40
2023/08/13 02:49:21;;;;;;;224.90;215.23;;;;;;;;;;5021763;28;20448;-45
2023/08/13 02:51:49;;;;;;;231.03;220.90;;;;;;;;;;5021659;28;20497;-47
2023/08/13 02:54:16;;;;;;;236.57;225.00;;;;;;;;;;5020924;28;20457;-45
2023/08/13 02:56:44;;;;;;;237.03;224.37;;;;;;;;;;5022236;28;20567;-44
2023/08/13 02:59:11;;;;;;;234.13;224.07;;;;;;;;;;5023095;28;20890;-44
2023/08/13 03:01:39;;;;;;;222.53;212.77;;;;;;;;;;5025315;28;20996;-43
2023/08/13 03:04:08;;;;;;;232.27;222.77;;;;;;;;;;5024989;28;20834;-42
2023/08/13 03:06:35;;;;;;;231.27;221.63;;;;;;;;;;5025092;28;20499;-41
2023/08/13 03:09:03;;;;;;;225.10;215.57;;;;;;;;;;5025903;28;20847;-44
2023/08/13 03:11:30;;;;;;;224.50;214.30;;;;;;;;;;5025815;28;20467;-45
2023/08/13 03:13:58;;;;;;;177.27;169.60;;;;;;;;;;5025078;28;20495;-41
2023/08/13 03:16:25;;;;;;;186.77;178.50;;;;;;;;;;5025505;28;20479;-45
2023/08/13 03:18:53;;;;;;;174.40;166.40;;;;;;;;;;5025059;28;20483;-42
2023/08/13 03:21:22;;;;;;;185.00;176.60;;;;;;;;;;5025035;28;20495;-41
2023/08/13 03:23:50;;;;;;;171.87;164.30;;;;;;;;;;5025080;28;20467;-42
2023/08/13 03:26:17;;;;;;;184.37;176.07;;;;;;;;;;5024626;28;20425;-43
2023/08/13 03:28:45;;;;;;;176.10;167.70;;;;;;;;;;5025400;28;20484;-43
2023/08/13 03:31:12;;;;;;;176.57;168.13;;;;;;;;;;5024104;28;20469;-42
2023/08/13 03:33:40;;;;;;;177.13;168.57;;;;;;;;;;5020141;28;20499;-42
2023/08/13 03:36:07;;;;;;;176.60;167.50;;;;;;;;;;5021351;28;20463;-42
2023/08/13 03:38:36;;;;;;;170.87;162.90;;;;;;;;;;5021071;28;20532;-50
2023/08/13 03:41:04;;;;;;;162.50;155.23;;;;;;;;;;5021720;28;20440;-47
2023/08/13 03:43:31;;;;;;;165.77;158.67;;;;;;;;;;5021488;28;20541;-45
2023/08/13 03:45:59;;;;;;;156.80;149.40;;;;;;;;;;5021754;28;20504;-45
2023/08/13 03:48:26;;;;;;;162.63;155.00;;;;;;;;;;5021228;28;20464;-47
2023/08/13 03:50:54;;;;;;;163.07;155.43;;;;;;;;;;5022223;28;20440;-42
2023/08/13 03:53:24;;;;;;;160.07;152.80;;;;;;;;;;5021345;28;20461;-42
2023/08/13 03:55:53;;;;;;;155.87;148.37;;;;;;;;;;5021821;28;20429;-46
2023/08/13 03:58:20;;;;;;;170.80;162.53;;;;;;;;;;5021815;28;20567;-45
2023/08/13 04:00:49;;;;;;;164.73;156.70;;;;;;;;;;5021440;28;20425;-44
2023/08/13 04:03:16;;;;;;;164.67;156.60;;;;;;;;;;5021371;28;20461;-45
2023/08/13 04:05:52;;;;;;;174.00;164.60;;;;;;;;;;5022486;28;20429;-42
2023/08/13 04:08:20;;;;;;;160.40;153.23;;;;;;;;;;5021724;28;20453;-45
2023/08/13 04:10:48;;;;;;;165.70;158.33;;;;;;;;;;5021049;28;20433;-42
2023/08/13 04:13:16;;;;;;;166.33;159.50;;;;;;;;;;5021965;28;21016;-45
2023/08/13 04:15:44;;;;;;;168.23;160.67;;;;;;;;;;5022087;28;20520;-42
2023/08/13 04:18:12;;;;;;;172.83;165.67;;;;;;;;;;5022047;28;20552;-45
2023/08/13 04:20:40;;;;;;;181.23;173.30;;;;;;;;;;5021965;28;20433;-43
2023/08/13 04:23:07;;;;;;;181.47;172.73;;;;;;;;;;5021018;28;20535;-42
2023/08/13 04:25:35;;;;;;;185.90;177.97;;;;;;;;;;5022217;28;20505;-47
2023/08/13 04:28:02;;;;;;;187.07;178.83;;;;;;;;;;5021055;28;20464;-46
2023/08/13 04:30:31;;;;;;;191.13;182.10;;;;;;;;;;5021403;28;20430;-42
2023/08/13 04:32:59;;;;;;;194.33;186.50;;;;;;;;;;5022703;28;20457;-45
2023/08/13 04:35:26;;;;;;;208.10;199.80;;;;;;;;;;5022663;28;20440;-47
2023/08/13 04:37:54;;;;;;;194.97;186.27;;;;;;;;;;5022813;28;20469;-42
2023/08/13 04:40:21;;;;;;;206.77;197.27;;;;;;;;;;5022725;28;20437;-40
2023/08/13 04:42:49;;;;;;;202.00;193.67;;;;;;;;;;5022383;28;20469;-40
2023/08/13 04:45:16;;;;;;;202.50;194.53;;;;;;;;;;5023297;28;20437;-42
2023/08/13 04:47:45;;;;;;;202.93;194.47;;;;;;;;;;5022718;28;20480;-42
2023/08/13 04:50:13;;;;;;;194.87;187.00;;;;;;;;;;5023243;28;20783;-40
2023/08/13 04:52:40;;;;;;;205.63;196.90;;;;;;;;;;5022905;28;20492;-41
2023/08/13 04:55:08;;;;;;;202.60;194.47;;;;;;;;;;5022753;28;20432;-44
2023/08/13 04:57:36;;;;;;;204.20;196.20;;;;;;;;;;5022653;28;20461;-43
2023/08/13 05:00:04;;;;;;;200.33;191.90;;;;;;;;;;5022795;28;20464;-45
2023/08/13 05:02:31;;;;;;;191.80;183.40;;;;;;;;;;5022458;28;20484;-42
2023/08/13 05:05:00;;;;;;;177.13;169.83;;;;;;;;;;5023242;28;20433;-45
2023/08/13 05:07:28;;;;;;;143.73;138.33;;;;;;;;;;5023298;28;20465;-46
2023/08/13 05:09:56;;;;;;;115.17;110.33;;;;;;;;;;5022587;28;20592;-45
2023/08/13 05:12:23;;;;;;;80.43;76.73;;;;;;;;;;5022459;28;20488;-41
2023/08/13 05:14:51;;;;;;;74.37;71.20;;;;;;;;;;5023278;28;20436;-42
2023/08/13 05:17:19;;;;;;;71.17;67.97;;;;;;;;;;5023161;28;20468;-43
2023/08/13 05:19:47;;;;;;;62.63;59.90;;;;;;;;;;5022984;28;20479;-41
2023/08/13 05:22:15;;;;;;;59.00;56.23;;;;;;;;;;5021714;28;21019;-44
2023/08/13 05:24:43;;;;;;;69.33;65.90;;;;;;;;;;5022468;28;20532;-42
2023/08/13 05:27:11;;;;;;;71.03;67.83;;;;;;;;;;5022838;28;20452;-42
2023/08/13 05:29:38;;;;;;;43.57;41.27;;;;;;;;;;5022862;28;20500;-42
2023/08/13 05:32:06;;;;;;;39.10;37.07;;;;;;;;;;5021860;28;20432;-40
2023/08/13 05:34:34;;;;;;;36.07;34.23;;;;;;;;;;5022181;28;20429;-43
2023/08/13 05:37:01;;;;;;;28.37;26.77;;;;;;;;;;5022143;28;20510;-41
2023/08/13 05:39:30;;;;;;;32.13;30.30;;;;;;;;;;5022660;28;20476;-41
2023/08/13 05:41:58;;;;;;;26.67;25.17;;;;;;;;;;5021266;28;20805;-42
2023/08/13 05:44:25;;;;;;;26.00;24.60;;;;;;;;;;5021848;28;20477;-46
2023/08/13 05:46:52;;;;;;;22.27;21.23;;;;;;;;;;5021431;28;20583;-40
2023/08/13 05:49:20;;;;;;;22.80;21.60;;;;;;;;;;5021397;28;20452;-40
2023/08/13 05:51:48;;;;;;;20.83;19.50;;;;;;;;;;5022118;28;20456;-42
2023/08/13 05:54:16;;;;;;;17.73;16.77;;;;;;;;;;5022520;28;20471;-48
2023/08/13 05:56:45;;;;;;;16.57;15.77;;;;;;;;;;5021853;28;20436;-43
2023/08/13 05:59:12;;;;;;;14.43;13.60;;;;;;;;;;5022392;28;20468;-43
2023/08/13 06:01:40;;;;;;;12.67;11.80;;;;;;;;;;5022343;28;20194;-42
2023/08/13 06:04:08;;;;;;;12.33;11.13;;;;;;;;;;5022558;28;20224;-42
2023/08/13 06:06:36;;;;;;;9.90;9.07;;;;;;;;;;5022900;28;20429;-45
2023/08/13 06:09:03;;;;;;;10.37;9.43;;;;;;;;;;5022824;28;20248;-41
2023/08/13 06:11:31;;;;;;;10.10;9.20;;;;;;;;;;5022698;28;20425;-43
2023/08/13 06:14:00;;;;;;;9.03;8.23;;;;;;;;;;5022207;28;20285;-41
2023/08/13 06:16:27;;;;;;;8.07;7.57;;;;;;;;;;5023395;28;20190;-41
2023/08/13 06:18:55;;;;;;;7.93;7.23;;;;;;;;;;5022980;28;20226;-41
2023/08/13 06:21:22;;;;;;;8.37;7.67;;;;;;;;;;5023425;28;20228;-43
2023/08/13 06:23:50;;;;;;;8.23;7.43;;;;;;;;;;5022701;28;20244;-47
2023/08/13 06:26:17;;;;;;;9.13;8.33;;;;;;;;;;5023452;28;20232;-42
2023/08/13 06:28:45;;;;;;;8.27;7.47;;;;;;;;;;5023145;28;20273;-41
2023/08/13 06:31:14;;;;;;;8.20;7.50;;;;;;;;;;5023443;28;20269;-41
2023/08/13 06:34:01;;;;;;;9.00;7.80;;;;;;;;;;5022530;28;20252;-42
2023/08/13 06:36:29;;;;;;;8.50;7.70;;;;;;;;;;5024549;28;20209;-43
2023/08/13 06:38:56;;;;;;;8.10;6.90;;;;;;;;;;5023501;28;20224;-44
2023/08/13 06:41:24;;;;;;;8.17;7.47;;;;;;;;;;5023298;28;20197;-40
2023/08/13 06:43:51;;;;;;;7.95;7.25;;;;;;;;;;5022839;28;20225;-44
2023/08/13 06:46:21;;;;;;;9.43;7.40;;;;;;;;;;5023301;28;20198;-44
2023/08/13 06:48:49;;;;;;;7.73;7.10;;;;;;;;;;5023531;28;20225;-41
2023/08/13 06:51:17;;;;;;;12.17;7.30;;;;;;;;;;5023464;28;20198;-42
2023/08/13 06:53:44;;;;;;;7.60;6.65;;;;;;;;;;5022242;28;20218;-41
2023/08/13 06:56:12;;;;;;;9.47;6.97;;;;;;;;;;5023295;28;20206;-41
2023/08/13 06:58:39;;;;;;;8.30;6.97;;;;;;;;;;5023157;28;20228;-43
2023/08/13 07:01:07;;;;;;;7.53;6.77;;;;;;;;;;5023816;28;20198;-41
2023/08/13 07:03:36;;;;;;;8.50;6.82;;;;;;;;;;5021941;28;20300;-41
2023/08/13 07:06:04;;;;;;;9.73;6.17;;;;;;;;;;5022928;28;20822;-45
2023/08/13 07:08:32;;;;;;;7.85;6.03;;;;;;;;;;5023572;28;20213;-43
2023/08/13 07:10:59;;;;;;;8.40;6.83;;;;;;;;;;5022663;28;20208;-42
2023/08/13 07:13:28;;;;;;;6.57;5.97;;;;;;;;;;5021772;28;20225;-42
2023/08/13 07:15:55;;;;;;;8.88;5.80;;;;;;;;;;5021147;28;20204;-44
2023/08/13 07:18:23;;;;;;;10.98;5.80;;;;;;;;;;5020775;28;20218;-45
2023/08/13 07:20:52;;;;;;;12.45;5.80;;;;;;;;;;5019881;28;20564;-45
2023/08/13 07:23:20;;;;;;;7.77;6.80;;;;;;;;;;5020296;28;20228;-42
2023/08/13 07:25:47;;;;;;;7.40;5.77;;;;;;;;;;5021855;28;20205;-41
2023/08/13 07:28:15;;;;;;;5.80;4.50;;;;;;;;;;5021753;28;20300;-42
2023/08/13 07:30:43;;;;;;;8.77;5.60;;;;;;;;;;5021330;28;20217;-42
2023/08/13 07:33:10;;;;;;;9.10;5.60;;;;;;;;;;5021935;28;20777;-42
2023/08/13 07:35:39;;;;;;;5.70;4.80;;;;;;;;;;5022222;28;20618;-44
2023/08/13 07:38:08;;;;;;;6.80;4.70;;;;;;;;;;5021437;28;20309;-42
2023/08/13 07:40:36;;;;;;;6.37;5.07;;;;;;;;;;5020674;28;20225;-42
2023/08/13 07:43:03;;;;;;;9.47;5.83;;;;;;;;;;5019842;28;20296;-46
2023/08/13 07:45:31;;;;;;;11.43;5.83;;;;;;;;;;5021082;28;20197;-43
2023/08/13 07:47:59;;;;;;;14.23;6.40;;;;;;;;;;5024103;28;20260;-42
2023/08/13 07:50:27;;;;;;;9.53;6.73;;;;;;;;;;5024338;28;20317;-43
2023/08/13 07:52:54;;;;;;;9.67;6.10;;;;;;;;;;5024111;28;20228;-44
2023/08/13 07:55:23;;;;;;;9.50;6.10;;;;;;;;;;5025894;28;20523;-42
2023/08/13 07:57:51;;;;;;;10.37;6.90;;;;;;;;;;5025170;28;20889;-41
2023/08/13 08:00:18;;;;;;;9.10;5.37;;;;;;;;;;5022742;28;20515;-41
2023/08/13 08:02:46;;;;;;;11.80;6.43;;;;;;;;;;5024231;28;20530;-44
2023/08/13 08:05:13;;;;;;;9.50;5.87;;;;;;;;;;5021609;28;20432;-46
2023/08/13 08:07:41;;;;;;;8.50;5.50;;;;;;;;;;5022666;28;20457;-42
2023/08/13 08:10:09;;;;;;;11.73;7.10;;;;;;;;;;5022122;28;20444;-44
2023/08/13 08:12:38;;;;;;;11.73;6.37;;;;;;;;;;5021354;28;20461;-44
2023/08/13 08:15:06;;;;;;;9.90;5.83;;;;;;;;;;5022471;28;20456;-41
2023/08/13 08:17:35;;;;;;;10.37;6.23;;;;;;;;;;5042682;23;20488;-45
2023/08/13 08:20:06;;;;;;;11.03;6.47;;;;;;;;;;5011957;28;20504;-45
2023/08/13 08:22:33;;;;;;;10.07;6.37;;;;;;;;;;5012294;28;21020;-46
2023/08/13 08:25:01;;;;;;;11.40;6.53;;;;;;;;;;5012879;28;20539;-50
2023/08/13 08:27:29;;;;;;;11.77;6.80;;;;;;;;;;5013408;28;20492;-45
2023/08/13 08:29:57;;;;;;;7.27;6.00;;;;;;;;;;5012793;28;20454;-46
2023/08/13 08:32:25;;;;;;;8.50;6.27;;;;;;;;;;5012054;28;20519;-45
2023/08/13 08:34:52;;;;;;;10.53;6.20;;;;;;;;;;5012048;28;20439;-43
2023/08/13 08:37:20;;;;;;;10.07;5.40;;;;;;;;;;5010458;28;20953;-47
2023/08/13 08:39:47;;;;;;;10.03;6.80;;;;;;;;;;5010002;28;20503;-46
2023/08/13 08:42:15;;;;;;;12.23;7.27;;;;;;;;;;5007931;28;20918;-47
2023/08/13 08:44:43;;;;;;;9.70;6.40;;;;;;;;;;5002902;28;20937;-45
2023/08/13 08:47:13;;;;;;;9.03;6.30;;;;;;;;;;5012682;28;20455;-42
2023/08/13 08:49:41;;;;;;;14.77;7.40;;;;;;;;;;5010367;28;20444;-44
2023/08/13 08:52:09;;;;;;;17.10;8.37;;;;;;;;;;5010266;28;20460;-44
2023/08/13 08:54:38;;;;;;;10.30;7.07;;;;;;;;;;5009866;28;20440;-44
2023/08/13 08:57:06;;;;;;;10.87;6.03;;;;;;;;;;5010871;28;20468;-44
2023/08/13 08:59:34;;;;;;;12.17;7.13;;;;;;;;;;5011776;28;20429;-47
2023/08/13 09:02:01;;;;;;;9.37;6.77;;;;;;;;;;5010702;28;20988;-44
2023/08/13 09:04:30;;;;;;;10.43;6.60;;;;;;;;;;5010790;28;20909;-42
2023/08/13 09:06:58;;;;;;;6.93;5.90;;;;;;;;;;5011903;28;20443;-42
2023/08/13 09:09:27;;;;;;;14.60;6.10;;;;;;;;;;5010215;28;20818;-44
2023/08/13 09:11:55;;;;;;;7.97;5.57;;;;;;;;;;5009177;28;20428;-48
2023/08/13 09:14:23;;;;;;;7.93;5.80;;;;;;;;;;5011328;28;20841;-46
2023/08/13 09:16:52;;;;;;;6.90;5.80;;;;;;;;;;5011882;28;20942;-42
2023/08/13 09:19:22;;;;;;;10.93;5.17;;;;;;;;;;5010384;28;20940;-44
2023/08/13 09:21:51;;;;;;;6.73;5.77;;;;;;;;;;5010468;28;21009;-44
2023/08/13 09:24:19;;;;;;;15.00;5.97;;;;;;;;;;5009843;28;20441;-42
2023/08/13 09:26:47;;;;;;;10.37;6.30;;;;;;;;;;5011558;28;20432;-42
2023/08/13 09:29:16;;;;;;;12.17;5.10;;;;;;;;;;5009620;28;20519;-49
2023/08/13 09:31:43;;;;;;;13.00;5.63;;;;;;;;;;5011135;28;21013;-43
2023/08/13 09:34:11;;;;;;;14.90;6.33;;;;;;;;;;5009968;28;20908;-43
2023/08/13 09:36:39;;;;;;;9.20;5.67;;;;;;;;;;5012263;28;20460;-44
2023/08/13 09:39:07;;;;;;;9.97;5.50;;;;;;;;;;5010875;28;20480;-43
2023/08/13 09:41:35;;;;;;;7.27;4.40;;;;;;;;;;5011439;28;20526;-44
2023/08/13 09:44:09;;;;;;;12.13;6.10;;;;;;;;;;5010340;28;20975;-42
2023/08/13 09:46:37;;;;;;;7.70;5.37;;;;;;;;;;5012201;28;20478;-43
2023/08/13 09:49:09;;;;;;;9.03;5.70;;;;;;;;;;5011289;28;20452;-41
2023/08/13 09:51:38;;;;;;;9.23;6.47;;;;;;;;;;5011880;28;21023;-46
2023/08/13 09:54:13;;;;;;;9.00;5.37;;;;;;;;;;5002515;28;20475;-48
2023/08/13 09:56:43;;;;;;;11.27;6.20;;;;;;;;;;5012115;28;20523;-45
2023/08/13 09:59:11;;;;;;;8.00;5.83;;;;;;;;;;5011011;28;21192;-45
2023/08/13 10:01:39;;;;;;;6.93;6.10;;;;;;;;;;5011522;28;20518;-42
2023/08/13 10:04:08;;;;;;;10.60;6.70;;;;;;;;;;4983936;28;20488;-44
2023/08/13 10:06:35;;;;;;;8.60;6.00;;;;;;;;;;5009217;28;20495;-45
2023/08/13 10:09:03;;;;;;;8.60;5.43;;;;;;;;;;5006213;28;20964;-41
2023/08/13 10:11:32;;;;;;;8.70;6.10;;;;;;;;;;5007666;28;20467;-44
2023/08/13 10:14:01;;;;;;;7.10;6.40;;;;;;;;;;4997899;28;20464;-46
2023/08/13 10:16:29;;;;;;;8.83;6.20;;;;;;;;;;5011129;28;20436;-43
2023/08/13 10:18:57;;;;;;;6.27;5.07;;;;;;;;;;5007998;28;20452;-43
2023/08/13 10:21:34;;;;;;;18.67;5.50;;;;;;;;;;5009062;28;20504;-44
2023/08/13 10:24:03;;;;;;;11.07;6.33;;;;;;;;;;4995741;28;20432;-44
2023/08/13 10:26:32;;;;;;;7.80;5.57;;;;;;;;;;5008716;28;20508;-43
2023/08/13 10:29:00;;;;;;;8.50;5.70;;;;;;;;;;5007883;28;20484;-43
2023/08/13 10:31:30;;;;;;;12.03;5.23;;;;;;;;;;5008133;28;20464;-41
2023/08/13 10:34:02;;;;;;;8.00;5.10;;;;;;;;;;5008172;28;20547;-41
2023/08/13 10:36:50;;;;;;;7.10;5.20;;;;;;;;;;4982897;28;20835;-41
2023/08/13 10:39:34;;;;;;;6.53;5.20;;;;;;;;;;5007452;28;20949;-44
2023/08/13 10:42:04;;;;;;;10.03;5.70;;;;;;;;;;5007215;28;20472;-46
2023/08/13 10:44:32;;;;;;;12.07;5.80;;;;;;;;;;5008728;28;20433;-45
2023/08/13 10:47:00;;;;;;;5.70;5.13;;;;;;;;;;4983107;28;20496;-43
2023/08/13 10:49:28;;;;;;;5.87;5.00;;;;;;;;;;5007727;28;20437;-43
2023/08/13 10:52:00;;;;;;;10.00;6.13;;;;;;;;;;5008385;28;20480;-44
2023/08/13 10:54:28;;;;;;;10.63;6.40;;;;;;;;;;5008201;28;20429;-48
2023/08/13 10:56:57;;;;;;;10.03;5.73;;;;;;;;;;4983579;28;20464;-42
2023/08/13 10:59:32;;;;;;;8.00;5.83;;;;;;;;;;5007471;28;20428;-43
2023/08/13 11:02:09;;;;;;;11.20;5.90;;;;;;;;;;5008454;28;20514;-43
2023/08/13 11:04:37;;;;;;;9.47;5.10;;;;;;;;;;5008218;28;20479;-41
2023/08/13 11:07:04;;;;;;;12.83;6.50;;;;;;;;;;4982962;28;20452;-41
2023/08/13 11:09:32;;;;;;;14.13;6.27;;;;;;;;;;5007631;28;20436;-44
2023/08/13 11:12:00;;;;;;;9.07;6.40;;;;;;;;;;5008110;28;20469;-43
2023/08/13 11:14:28;;;;;;;10.40;6.10;;;;;;;;;;5007764;28;20464;-45
2023/08/13 11:16:58;;;;;;;7.67;5.97;;;;;;;;;;5000192;28;20483;-46
2023/08/13 11:19:25;;;;;;;12.03;6.07;;;;;;;;;;5006968;28;21002;-40
2023/08/13 11:21:54;;;;;;;11.87;6.77;;;;;;;;;;5012107;28;20522;-42
2023/08/13 11:24:21;;;;;;;9.47;5.60;;;;;;;;;;4995449;28;20805;-42
2023/08/13 11:26:49;;;;;;;11.10;6.20;;;;;;;;;;5012090;28;20898;-42
2023/08/13 11:29:19;;;;;;;10.03;6.47;;;;;;;;;;4985430;28;20627;-44
2023/08/13 11:31:46;;;;;;;8.40;6.50;;;;;;;;;;5011984;28;20834;-42
2023/08/13 11:34:16;;;;;;;6.27;5.50;;;;;;;;;;5011261;28;20942;-44
2023/08/13 11:36:44;;;;;;;9.87;6.40;;;;;;;;;;5011831;28;20478;-44
2023/08/13 11:39:12;;;;;;;9.63;5.50;;;;;;;;;;4987155;28;20469;-44
2023/08/13 11:41:40;;;;;;;8.93;5.90;;;;;;;;;;5010775;28;20476;-45
2023/08/13 11:44:10;;;;;;;8.63;5.00;;;;;;;;;;5012372;28;20938;-43
2023/08/13 11:46:54;;;;;;;10.90;5.80;;;;;;;;;;5012471;28;20443;-47
2023/08/13 11:49:23;;;;;;;9.53;5.30;;;;;;;;;;5012560;28;20506;-40
2023/08/13 11:51:51;;;;;;;8.37;4.83;;;;;;;;;;4987008;28;20460;-45
2023/08/13 11:54:20;;;;;;;6.00;4.80;;;;;;;;;;5012508;28;20486;-43
2023/08/13 11:56:50;;;;;;;6.00;4.40;;;;;;;;;;5011457;28;20431;-48
2023/08/13 11:59:24;;;;;;;10.33;5.67;;;;;;;;;;5011979;28;20502;-44
2023/08/13 12:01:53;;;;;;;8.40;4.97;;;;;;;;;;4986916;28;21012;-43
2023/08/13 12:04:23;;;;;;;7.50;4.53;;;;;;;;;;5011754;28;20464;-44
2023/08/13 12:06:52;;;;;;;16.30;5.77;;;;;;;;;;5011599;28;20925;-42
2023/08/13 12:09:19;;;;;;;8.27;4.70;;;;;;;;;;5011953;28;20432;-45
2023/08/13 12:11:47;;;;;;;10.60;5.40;;;;;;;;;;4985842;28;20491;-44
2023/08/13 12:14:14;;;;;;;7.50;4.30;;;;;;;;;;5011511;28;20455;-47
2023/08/13 12:16:42;;;;;;;7.90;4.60;;;;;;;;;;5011516;28;20857;-47
2023/08/13 12:19:09;;;;;;;7.40;4.47;;;;;;;;;;5011621;28;21186;-44
2023/08/13 12:21:38;;;;;;;7.83;5.00;;;;;;;;;;4986492;28;20499;-44
2023/08/13 12:24:06;;;;;;;9.47;5.27;;;;;;;;;;5011107;28;20433;-41
2023/08/13 12:26:34;;;;;;;7.60;4.70;;;;;;;;;;5011224;28;20523;-44
2023/08/13 12:29:02;;;;;;;10.00;6.23;;;;;;;;;;5011281;28;20491;-43
2023/08/13 12:31:31;;;;;;;8.27;5.70;;;;;;;;;;5010306;28;20471;-48
2023/08/13 12:33:58;;;;;;;9.70;5.30;;;;;;;;;;4986211;28;20544;-45
2023/08/13 12:36:26;;;;;;;6.90;5.73;;;;;;;;;;5011982;28;20519;-45
2023/08/13 12:38:55;;;;;;;6.70;5.73;;;;;;;;;;5011301;28;20453;-44
2023/08/13 12:41:22;;;;;;;7.07;4.87;;;;;;;;;;5010774;28;20483;-44
2023/08/13 12:44:07;;;;;;;6.90;5.63;;;;;;;;;;4985975;28;20483;-46
2023/08/13 12:46:34;;;;;;;6.60;5.50;;;;;;;;;;5010934;28;20436;-44
2023/08/13 12:49:03;;;;;;;10.13;5.97;;;;;;;;;;5011416;28;20483;-45
2023/08/13 12:51:31;;;;;;;12.53;5.70;;;;;;;;;;5011465;28;20432;-42
2023/08/13 12:54:00;;;;;;;5.60;4.90;;;;;;;;;;4987047;28;20508;-42
2023/08/13 12:56:27;;;;;;;8.10;5.37;;;;;;;;;;5010883;28;20531;-43
2023/08/13 12:58:55;;;;;;;7.00;4.73;;;;;;;;;;5011326;28;20476;-45
2023/08/13 13:01:22;;;;;;;7.80;5.40;;;;;;;;;;5011046;28;20432;-44
2023/08/13 13:03:49;;;;;;;7.03;4.50;;;;;;;;;;4985791;28;20494;-42
2023/08/13 13:06:17;;;;;;;8.50;4.13;;;;;;;;;;5010954;28;20959;-47
2023/08/13 13:08:44;;;;;;;4.90;3.97;;;;;;;;;;5010194;28;20487;-42
2023/08/13 13:11:14;;;;;;;11.70;5.30;;;;;;;;;;5010369;28;20499;-43
2023/08/13 13:13:41;;;;;;;6.33;4.40;;;;;;;;;;4985680;28;20475;-44
2023/08/13 13:16:09;;;;;;;8.10;5.30;;;;;;;;;;5011428;28;20436;-43
2023/08/13 13:18:36;;;;;;;8.20;5.20;;;;;;;;;;5011271;28;20471;-44
2023/08/13 13:21:04;;;;;;;5.37;4.87;;;;;;;;;;5010630;28;20526;-44
2023/08/13 13:23:31;;;;;;;7.83;4.40;;;;;;;;;;4984254;28;20914;-45
2023/08/13 13:25:59;;;;;;;5.67;3.93;;;;;;;;;;5010395;28;20437;-41
2023/08/13 13:28:28;;;;;;;8.50;4.60;;;;;;;;;;5010182;28;20537;-41
2023/08/13 13:30:55;;;;;;;9.93;4.93;;;;;;;;;;5010953;28;20429;-45
2023/08/13 13:33:23;;;;;;;5.20;4.70;;;;;;;;;;5009932;28;20520;-46
2023/08/13 13:35:50;;;;;;;4.93;4.40;;;;;;;;;;4988426;28;20486;-47
2023/08/13 13:38:18;;;;;;;5.00;4.60;;;;;;;;;;5009688;28;20486;-45
2023/08/13 13:40:45;;;;;;;7.20;4.20;;;;;;;;;;5010690;28;20515;-48
2023/08/13 13:43:13;;;;;;;7.90;5.00;;;;;;;;;;5009216;28;20567;-43
2023/08/13 13:45:42;;;;;;;7.80;3.83;;;;;;;;;;4984912;28;20464;-42
2023/08/13 13:48:09;;;;;;;9.80;4.33;;;;;;;;;;5010320;28;20492;-46
2023/08/13 13:50:37;;;;;;;8.50;6.63;;;;;;;;;;5009600;28;20436;-45
2023/08/13 13:53:05;;;;;;;5.40;4.90;;;;;;;;;;5009619;28;20428;-41
2023/08/13 13:55:46;;;;;;;5.30;4.80;;;;;;;;;;4984844;28;20575;-43
2023/08/13 13:58:14;;;;;;;7.00;4.20;;;;;;;;;;5010523;28;20484;-43
2023/08/13 14:00:44;;;;;;;7.07;4.50;;;;;;;;;;5010012;28;20455;-47
2023/08/13 14:03:11;;;;;;;6.50;4.63;;;;;;;;;;5009287;28;20558;-42
2023/08/13 14:05:39;;;;;;;11.43;4.60;;;;;;;;;;4984489;28;20436;-43
2023/08/13 14:08:06;;;;;;;5.10;4.63;;;;;;;;;;5009041;28;20483;-43
2023/08/13 14:10:34;;;;;;;6.60;5.03;;;;;;;;;;5009721;28;20432;-44
2023/08/13 14:13:01;;;;;;;6.90;4.50;;;;;;;;;;5009695;28;20838;-46
2023/08/13 14:15:29;;;;;;;5.37;4.63;;;;;;;;;;5009392;28;20464;-44
2023/08/13 14:17:57;;;;;;;7.80;5.00;;;;;;;;;;4984368;28;20562;-47
2023/08/13 14:20:25;;;;;;;5.37;4.87;;;;;;;;;;5009859;28;20432;-47
2023/08/13 14:22:53;;;;;;;7.00;5.00;;;;;;;;;;5009364;28;20500;-44
2023/08/13 14:25:20;;;;;;;7.93;4.53;;;;;;;;;;5009379;28;20802;-46
2023/08/13 14:27:47;;;;;;;6.80;4.30;;;;;;;;;;4984179;28;21030;-45